Time;durP1;ratioP1;P1;durP2;ratioP2;P2;SDS_P1;SDS_P2;PMS_P1;PMS_P2;Temp;Humidity;BMP_temperature;BMP_pressure;BME280_temperature;BME280_humidity;BME280_pressure;Samples;Min_cycle;Max_cycle;Signal;HPM_P1;HPM_P2
2023/01/12 00:01:33;;;;;;;12.20;3.38;;;;;;;20.57;99.24;100746.34;5057256;28;20041;-54
2023/01/12 00:03:58;;;;;;;13.23;3.28;;;;;;;19.43;100.00;100745.53;5063564;28;20036;-52
2023/01/12 00:06:24;;;;;;;11.98;3.38;;;;;;;19.97;100.00;100735.69;5058827;28;20029;-54
2023/01/12 00:08:52;;;;;;;15.00;3.08;;;;;;;20.51;98.94;100753.63;5055893;28;20029;-55
2023/01/12 00:11:18;;;;;;;19.37;4.27;;;;;;;19.32;100.00;100742.72;5056971;28;20064;-52
2023/01/12 00:13:44;;;;;;;15.70;3.17;;;;;;;19.51;100.00;100745.06;5055687;28;20270;-55
2023/01/12 00:16:33;;;;;;;20.88;4.28;;;;;;;19.25;100.00;100728.56;5055009;28;20057;-55
2023/01/12 00:19:00;;;;;;;18.10;3.50;;;;;;;20.55;100.00;100732.19;5056711;28;20044;-55
2023/01/12 00:21:26;;;;;;;18.97;3.23;;;;;;;20.97;100.00;100731.25;5060882;28;20267;-56
2023/01/12 00:23:52;;;;;;;23.20;5.90;;;;;;;20.94;100.00;100707.34;5058800;28;20282;-55
2023/01/12 00:26:17;;;;;;;22.58;5.28;;;;;;;20.45;100.00;100709.34;5059552;28;20071;-54
2023/01/12 00:28:43;;;;;;;15.43;4.10;;;;;;;20.48;100.00;100703.38;5056546;28;20045;-56
2023/01/12 00:31:09;;;;;;;26.83;4.40;;;;;;;20.25;100.00;100701.09;5058259;28;20033;-52
2023/01/12 00:33:37;;;;;;;22.00;5.13;;;;;;;19.82;100.00;100703.81;5058844;28;20057;-55
2023/01/12 00:36:12;;;;;;;17.67;3.77;;;;;;;20.33;100.00;100695.19;5062186;28;20288;-53
2023/01/12 00:38:38;;;;;;;33.63;6.83;;;;;;;19.61;100.00;100693.63;5056653;28;20286;-54
2023/01/12 00:41:08;;;;;;;24.13;4.85;;;;;;;20.48;100.00;100706.06;5058211;28;20306;-56
2023/01/12 00:46:27;;;;;;;23.90;5.77;;;;;;;19.58;100.00;100704.19;5059185;28;20282;-54
2023/01/12 00:48:53;;;;;;;35.57;7.47;;;;;;;20.84;100.00;100685.59;5054920;28;20274;-54
2023/01/12 00:51:18;;;;;;;33.73;6.80;;;;;;;19.26;100.00;100686.81;5059574;28;20294;-56
2023/01/12 00:53:44;;;;;;;34.15;7.53;;;;;;;19.67;100.00;100691.75;5054054;28;20041;-53
2023/01/12 00:56:09;;;;;;;40.27;8.37;;;;;;;20.04;100.00;100699.09;5054602;28;20033;-56
2023/01/12 00:58:35;;;;;;;30.03;6.93;;;;;;;19.83;100.00;100676.38;5054733;28;20068;-57
2023/01/12 01:01:05;;;;;;;26.63;7.13;;;;;;;20.11;100.00;100669.00;5055870;28;20037;-55
2023/01/12 01:03:31;;;;;;;33.67;7.97;;;;;;;18.87;100.00;100674.25;5062157;28;20061;-57
2023/01/12 01:06:02;;;;;;;27.85;7.60;;;;;;;19.24;100.00;100661.88;5053835;28;20262;-57
2023/01/12 01:08:28;;;;;;;25.10;7.33;;;;;;;19.20;100.00;100669.69;5057653;28;20060;-56
2023/01/12 01:11:08;;;;;;;37.58;7.05;;;;;;;20.12;100.00;100659.78;5055905;28;20269;-58
2023/01/12 01:13:35;;;;;;;23.47;7.03;;;;;;;19.82;100.00;100647.63;5054655;28;20095;-55
2023/01/12 01:16:03;;;;;;;24.13;5.68;;;;;;;19.75;100.00;100655.19;5055298;28;20342;-56
2023/01/12 01:18:30;;;;;;;32.50;6.87;;;;;;;19.40;100.00;100657.38;5053781;28;20037;-56
2023/01/12 01:20:55;;;;;;;26.30;5.28;;;;;;;20.23;100.00;100638.09;5057210;28;20254;-58
2023/01/12 01:23:23;;;;;;;35.65;7.03;;;;;;;18.68;100.00;100633.13;5053565;28;20069;-54
2023/01/12 01:25:49;;;;;;;40.73;6.27;;;;;;;18.75;100.00;100643.75;5053954;28;20033;-56
2023/01/12 01:28:15;;;;;;;29.90;6.30;;;;;;;18.56;100.00;100632.47;5055380;28;20345;-57
2023/01/12 01:30:40;;;;;;;28.02;5.10;;;;;;;18.38;100.00;100626.31;5055755;28;20045;-58
2023/01/12 01:33:06;;;;;;;27.00;6.23;;;;;;;18.69;100.00;100620.41;5060353;28;20099;-57
2023/01/12 01:35:31;;;;;;;32.67;6.45;;;;;;;18.57;100.00;100620.56;5052696;28;20128;-58
2023/01/12 01:37:57;;;;;;;22.40;6.47;;;;;;;18.82;100.00;100621.88;5055979;28;20052;-58
2023/01/12 01:40:22;;;;;;;29.58;7.50;;;;;;;18.36;100.00;100636.56;5055349;28;20033;-57
2023/01/12 01:42:48;;;;;;;29.30;6.32;;;;;;;18.90;100.00;100619.53;5038374;28;20041;-59
2023/01/12 01:45:15;;;;;;;24.93;6.10;;;;;;;19.12;100.00;100620.56;5052512;28;20049;-59
2023/01/12 01:47:54;;;;;;;45.17;6.17;;;;;;;18.08;100.00;100605.09;5053545;28;20266;-59
2023/01/12 01:50:39;;;;;;;29.40;5.43;;;;;;;18.79;100.00;100628.63;5052504;28;20273;-59
2023/01/12 01:53:13;;;;;;;33.70;6.60;;;;;;;18.82;100.00;100619.19;5054795;28;20278;-59
2023/01/12 01:55:47;;;;;;;25.10;5.67;;;;;;;18.34;100.00;100628.72;5054027;28;20282;-59
2023/01/12 01:58:18;;;;;;;16.70;4.40;;;;;;;18.86;100.00;100623.00;5056314;28;20275;-59
2023/01/12 02:00:45;;;;;;;19.17;4.00;;;;;;;18.28;100.00;100605.34;5052979;28;20297;-59
2023/01/12 02:03:12;;;;;;;33.78;4.65;;;;;;;18.55;100.00;100606.47;5054143;28;20294;-59
2023/01/12 02:05:42;;;;;;;31.63;5.10;;;;;;;18.57;100.00;100617.84;5056706;28;20062;-57
2023/01/12 02:08:33;;;;;;;23.63;5.37;;;;;;;22.49;100.00;100614.59;5057057;28;20266;-58
2023/01/12 02:11:01;;;;;;;17.27;3.10;;;;;;;22.09;97.03;100596.53;5057997;28;20274;-58
2023/01/12 02:16:22;;;;;;;18.43;4.47;;;;;;;24.08;74.10;100603.66;5054198;28;20278;-59
2023/01/12 02:19:00;;;;;;;13.60;3.43;;;;;;;24.35;86.45;100605.78;5058509;28;20281;-59
2023/01/12 02:21:31;;;;;;;10.35;2.80;;;;;;;23.24;100.00;100600.94;5056813;28;20274;-58
2023/01/12 02:24:28;;;;;;;18.97;3.47;;;;;;;23.58;87.73;100605.56;5059987;28;20037;-58
2023/01/12 02:27:16;;;;;;;44.80;4.50;;;;;;;23.90;100.00;100584.22;5061569;28;20271;-53
2023/01/12 02:30:05;;;;;;;20.03;5.40;;;;;;;29.78;53.59;100599.00;5057399;28;20292;-57
2023/01/12 02:32:52;;;;;;;35.80;3.00;;;;;;;27.71;57.79;100589.09;5064421;28;20297;-56
2023/01/12 02:35:27;;;;;;;29.42;3.20;;;;;;;22.92;76.87;100575.06;5058860;28;20266;-55
2023/01/12 02:38:11;;;;;;;29.53;2.60;;;;;;;21.45;100.00;100559.69;5058697;28;20033;-56
2023/01/12 02:40:59;;;;;;;22.13;3.53;;;;;;;20.35;100.00;100549.09;5057027;28;20267;-56
2023/01/12 02:43:28;;;;;;;17.87;3.43;;;;;;;19.50;100.00;100542.75;5057468;28;20297;-58
2023/01/12 02:46:10;;;;;;;17.83;4.47;;;;;;;20.03;100.00;100503.91;5054669;28;20282;-54
2023/01/12 02:48:44;;;;;;;34.47;6.13;;;;;;;19.25;100.00;100519.00;5056719;28;20281;-55
2023/01/12 02:51:28;;;;;;;19.70;6.67;;;;;;;19.10;100.00;100528.69;5061442;28;20289;-57
2023/01/12 02:54:06;;;;;;;25.90;4.47;;;;;;;19.55;100.00;100534.63;5058051;28;20255;-54
2023/01/12 02:56:39;;;;;;;20.30;4.83;;;;;;;19.31;100.00;100515.25;5058083;28;20278;-58
2023/01/12 02:59:19;;;;;;;18.93;4.60;;;;;;;20.98;100.00;100520.88;5057312;28;20281;-58
2023/01/12 03:01:49;;;;;;;15.27;3.67;;;;;;;21.20;100.00;100503.44;5055439;28;20290;-59
2023/01/12 03:04:17;;;;;;;25.33;4.67;;;;;;;20.49;100.00;100501.28;5056276;28;20282;-55
2023/01/12 03:07:18;;;;;;;20.57;4.03;;;;;;;20.11;100.00;100514.28;5056091;28;20281;-58
2023/01/12 03:09:56;;;;;;;23.70;5.90;;;;;;;20.39;100.00;100528.44;5057520;28;20338;-58
2023/01/12 03:12:27;;;;;;;28.63;5.97;;;;;;;18.58;100.00;100490.34;5058159;28;20266;-58
2023/01/12 03:14:55;;;;;;;27.10;6.73;;;;;;;17.81;100.00;100509.28;5057011;28;20282;-57
2023/01/12 03:17:31;;;;;;;25.23;5.13;;;;;;;18.67;100.00;100496.06;5064745;28;20254;-58
2023/01/12 03:20:22;;;;;;;21.07;4.63;;;;;;;17.97;100.00;100485.91;5054607;28;20286;-53
2023/01/12 03:22:52;;;;;;;29.20;6.07;;;;;;;17.51;100.00;100483.47;5067202;28;20301;-61
2023/01/12 03:25:20;;;;;;;19.47;5.07;;;;;;;21.00;100.00;100467.06;5059106;28;20365;-54
2023/01/12 03:27:51;;;;;;;22.10;4.80;;;;;;;17.47;100.00;100463.41;5064340;28;20271;-55
2023/01/12 03:30:26;;;;;;;32.93;6.90;;;;;;;17.65;100.00;100459.59;5058891;28;20296;-55
2023/01/12 03:32:52;;;;;;;27.60;6.33;;;;;;;21.20;100.00;100457.22;5064760;28;20291;-54
2023/01/12 03:35:23;;;;;;;31.35;6.40;;;;;;;17.97;100.00;100458.03;5059140;28;20282;-58
2023/01/12 03:37:51;;;;;;;31.93;6.77;;;;;;;17.82;100.00;100475.75;5060697;28;20095;-55
2023/01/12 03:40:26;;;;;;;40.50;7.77;;;;;;;17.76;100.00;100438.88;5062214;28;20285;-57
2023/01/12 03:43:02;;;;;;;32.60;5.37;;;;;;;17.68;100.00;100442.03;5061596;28;20282;-57
2023/01/12 03:45:44;;;;;;;28.65;5.47;;;;;;;19.54;100.00;100446.22;5059630;28;20265;-59
2023/01/12 03:48:17;;;;;;;37.53;6.33;;;;;;;17.99;100.00;100437.78;5057414;28;20037;-57
2023/01/12 03:50:49;;;;;;;30.00;5.17;;;;;;;18.23;100.00;100439.41;5059554;28;20278;-58
2023/01/12 03:53:19;;;;;;;27.63;6.73;;;;;;;18.04;100.00;100407.28;5062613;28;20286;-58
2023/01/12 03:55:49;;;;;;;24.03;5.23;;;;;;;17.74;100.00;100411.25;5063242;28;20274;-59
2023/01/12 03:58:16;;;;;;;24.23;5.70;;;;;;;18.67;100.00;100376.09;5066215;28;20268;-58
2023/01/12 04:00:42;;;;;;;20.23;4.60;;;;;;;17.17;100.00;100351.16;5061529;28;20262;-58
2023/01/12 04:03:11;;;;;;;20.58;5.10;;;;;;;17.48;100.00;100351.50;5060083;28;20299;-59
2023/01/12 04:05:38;;;;;;;24.33;5.17;;;;;;;17.31;100.00;100355.13;5059067;28;20037;-58
2023/01/12 04:08:04;;;;;;;20.93;4.90;;;;;;;17.52;100.00;100336.41;5057382;28;20377;-58
2023/01/12 04:10:30;;;;;;;27.42;5.07;;;;;;;17.12;100.00;100343.81;5062696;28;20288;-57
2023/01/12 04:12:55;;;;;;;11.17;4.03;;;;;;;16.82;100.00;100317.19;5063623;28;20040;-57
2023/01/12 04:15:21;;;;;;;22.53;3.67;;;;;;;17.48;100.00;100292.03;5059872;28;20034;-58
2023/01/12 04:17:46;;;;;;;14.90;3.20;;;;;;;17.50;100.00;100314.22;5064876;28;20029;-57
2023/01/12 04:20:12;;;;;;;14.70;2.85;;;;;;;17.85;100.00;100276.97;5060074;28;20036;-58
2023/01/12 04:22:43;;;;;;;18.87;3.00;;;;;;;18.12;100.00;100268.81;5059423;28;20076;-58
2023/01/12 04:25:17;;;;;;;16.20;4.30;;;;;;;18.21;100.00;100266.44;5060744;28;20059;-57
2023/01/12 04:27:47;;;;;;;13.60;3.23;;;;;;;18.62;100.00;100227.94;5063124;28;20287;-56
2023/01/12 04:30:14;;;;;;;19.07;3.67;;;;;;;18.14;100.00;100245.00;5056850;28;20259;-56
2023/01/12 04:32:41;;;;;;;23.87;4.17;;;;;;;18.18;100.00;100221.75;5064205;28;20273;-57
2023/01/12 04:35:07;;;;;;;13.30;3.50;;;;;;;17.92;100.00;100199.94;5058605;28;20297;-56
2023/01/12 04:37:33;;;;;;;0.10;0.10;;;;;;;17.88;100.00;100168.28;5061558;28;20286;-57
2023/01/12 04:40:00;;;;;;;19.23;4.03;;;;;;;19.65;100.00;100223.88;5059236;28;20045;-57
2023/01/12 04:45:11;;;;;;;21.37;4.00;;;;;;;17.29;100.00;100224.03;5061056;28;20269;-56
2023/01/12 04:47:37;;;;;;;28.02;4.68;;;;;;;16.81;100.00;100196.75;5055926;28;20271;-55
2023/01/12 04:50:03;;;;;;;42.40;5.43;;;;;;;18.59;100.00;100217.66;5061646;28;20040;-56
2023/01/12 04:52:28;;;;;;;36.45;3.95;;;;;;;17.77;100.00;100159.28;5063222;28;20098;-56
2023/01/12 04:54:54;;;;;;;21.27;4.67;;;;;;;17.78;100.00;100155.50;5063479;28;20033;-54
2023/01/12 04:57:19;;;;;;;26.23;3.57;;;;;;;17.17;100.00;100125.03;5065638;28;20277;-54
2023/01/12 04:59:45;;;;;;;13.27;2.97;;;;;;;17.70;100.00;100170.31;5061102;28;20051;-57
2023/01/12 05:02:11;;;;;;;2.13;0.73;;;;;;;22.28;100.00;100182.72;5061943;28;20279;-57
2023/01/12 05:04:36;;;;;;;0.10;0.10;;;;;;;22.02;99.69;100223.84;5062217;28;20119;-54
2023/01/12 05:07:02;;;;;;;2.33;2.13;;;;;;;20.37;100.00;100204.75;5061680;28;20049;-58
2023/01/12 05:12:11;;;;;;;16.77;3.53;;;;;;;20.36;100.00;100227.59;5059656;28;20049;-58
2023/01/12 05:14:37;;;;;;;18.43;3.37;;;;;;;19.84;100.00;100173.41;5064445;28;20274;-55
2023/01/12 05:17:03;;;;;;;15.98;3.95;;;;;;;46.67;100.00;100198.13;5058592;28;20032;-57
2023/01/12 05:19:29;;;;;;;16.30;4.25;;;;;;;21.99;100.00;100205.38;5059696;28;20039;-56
2023/01/12 05:21:54;;;;;;;14.73;2.70;;;;;;;20.40;100.00;100195.22;5061390;28;20033;-56
2023/01/12 05:24:19;;;;;;;12.87;3.00;;;;;;;19.96;100.00;100188.59;5061693;28;20021;-57
2023/01/12 05:26:45;;;;;;;8.70;2.57;;;;;;;19.26;100.00;100187.22;5057213;28;20072;-54
2023/01/12 05:29:12;;;;;;;23.43;4.03;;;;;;;19.46;100.00;100181.81;5055695;28;20282;-56
2023/01/12 05:31:38;;;;;;;16.07;2.90;;;;;;;19.15;100.00;100178.28;5062556;28;20044;-54
2023/01/12 05:34:03;;;;;;;21.33;3.13;;;;;;;19.22;100.00;100191.56;5056754;28;20284;-55
2023/01/12 05:36:29;;;;;;;5.33;2.27;;;;;;;18.03;100.00;100179.19;5057519;28;20277;-55
2023/01/12 05:38:54;;;;;;;19.48;3.05;;;;;;;18.68;100.00;100174.63;5063799;28;20103;-55
2023/01/12 05:41:21;;;;;;;17.67;2.70;;;;;;;19.12;100.00;100178.81;5063922;28;20038;-56
2023/01/12 05:43:50;;;;;;;14.53;2.47;;;;;;;18.84;100.00;100203.38;5061542;28;20062;-57
2023/01/12 05:46:28;;;;;;;15.03;2.97;;;;;;;19.61;100.00;100174.75;5061742;28;20262;-54
2023/01/12 05:48:55;;;;;;;27.10;4.05;;;;;;;19.07;100.00;100163.38;5063998;28;20342;-55
2023/01/12 05:51:22;;;;;;;11.90;2.30;;;;;;;19.62;100.00;100189.94;5062439;28;20025;-54
2023/01/12 05:53:48;;;;;;;23.33;2.27;;;;;;;20.24;100.00;100170.03;5058087;28;20267;-54
2023/01/12 05:56:24;;;;;;;16.33;2.00;;;;;;;20.88;100.00;100170.31;5054957;28;20269;-54
2023/01/12 05:58:50;;;;;;;11.10;2.00;;;;;;;21.19;100.00;100164.66;5058488;28;20033;-56
2023/01/12 06:01:16;;;;;;;;;;;;;;;19.94;100.00;100185.34;5060034;28;20274;-52
2023/01/12 06:03:41;;;;;;;10.27;1.93;;;;;;;22.27;100.00;100140.25;5062863;28;19917;-53
2023/01/12 06:06:07;;;;;;;9.40;2.30;;;;;;;20.34;100.00;100151.81;5059348;28;20040;-55
2023/01/12 06:08:32;;;;;;;12.35;1.58;;;;;;;19.54;100.00;100123.50;5064223;28;20029;-55
2023/01/12 06:11:02;;;;;;;3.93;2.13;;;;;;;18.13;100.00;100183.06;5064024;28;20060;-57
2023/01/12 06:16:13;;;;;;;15.70;2.40;;;;;;;18.24;100.00;100102.75;5063009;28;20309;-58
2023/01/12 06:18:39;;;;;;;9.23;1.93;;;;;;;18.26;100.00;100135.75;5063471;28;20270;-56
2023/01/12 06:21:08;;;;;;;8.47;2.27;;;;;;;18.94;100.00;100143.00;5054317;28;20040;-57
2023/01/12 06:23:34;;;;;;;8.40;2.80;;;;;;;18.29;100.00;100130.63;5061086;28;20049;-57
2023/01/12 06:26:01;;;;;;;5.07;2.20;;;;;;;19.14;100.00;100133.28;5060501;28;20349;-52
2023/01/12 06:28:27;;;;;;;6.60;1.80;;;;;;;18.57;100.00;100144.00;5061764;28;20055;-53
2023/01/12 06:31:04;;;;;;;9.50;2.30;;;;;;;20.72;100.00;100145.94;5039649;28;20291;-56
2023/01/12 06:33:31;;;;;;;9.23;2.40;;;;;;;22.30;100.00;100132.31;5058013;28;20049;-53
2023/01/12 06:35:57;;;;;;;10.57;2.67;;;;;;;22.15;100.00;100146.13;5056799;28;20033;-58
2023/01/12 06:38:25;;;;;;;6.13;2.80;;;;;;;19.70;100.00;100137.06;5055509;28;20044;-55
2023/01/12 06:40:51;;;;;;;14.33;3.30;;;;;;;20.34;100.00;100161.88;5051232;28;20029;-53
2023/01/12 06:43:17;;;;;;;25.70;3.40;;;;;;;20.69;100.00;100173.66;5054207;28;20295;-52
2023/01/12 06:45:42;;;;;;;14.25;2.97;;;;;;;20.34;100.00;100175.47;5062563;28;20043;-55
2023/01/12 06:48:08;;;;;;;8.43;2.53;;;;;;;20.31;100.00;100157.81;5059040;28;20079;-55
2023/01/12 06:50:35;;;;;;;5.53;2.77;;;;;;;20.19;100.00;100154.63;5057790;28;20101;-56
2023/01/12 06:53:01;;;;;;;;;;;;;;;20.59;100.00;100162.84;5056206;28;20029;-55
2023/01/12 06:55:26;;;;;;;13.17;3.37;;;;;;;20.06;100.00;100183.94;5056133;28;19928;-54
2023/01/12 06:57:51;;;;;;;8.68;2.80;;;;;;;20.37;100.00;100155.06;5057456;28;20036;-54
2023/01/12 07:00:17;;;;;;;10.17;2.97;;;;;;;20.29;100.00;100167.31;5051002;28;20038;-52
2023/01/12 07:02:42;;;;;;;9.38;3.38;;;;;;;20.41;100.00;100189.53;5059394;28;20183;-54
2023/01/12 07:05:08;;;;;;;11.73;3.00;;;;;;;20.32;100.00;100159.44;5055333;28;20041;-53
2023/01/12 07:07:33;;;;;;;7.20;3.38;;;;;;;20.15;100.00;100197.78;5056658;28;20098;-57
2023/01/12 07:09:59;;;;;;;7.37;3.17;;;;;;;20.47;100.00;100191.13;5059195;28;20074;-55
2023/01/12 07:12:24;;;;;;;11.83;3.23;;;;;;;19.65;100.00;100181.25;5064301;28;20037;-57
2023/01/12 07:14:50;;;;;;;10.53;3.03;;;;;;;19.81;100.00;100176.63;5062332;28;20049;-59
2023/01/12 07:17:16;;;;;;;11.98;2.92;;;;;;;19.89;100.00;100184.22;5060639;28;20037;-55
2023/01/12 07:19:42;;;;;;;16.73;3.65;;;;;;;19.82;100.00;100180.97;5062830;28;20033;-59
2023/01/12 07:22:07;;;;;;;11.55;3.42;;;;;;;19.12;100.00;100195.88;5063312;28;20041;-58
2023/01/12 07:24:33;;;;;;;18.67;4.40;;;;;;;19.11;100.00;100201.56;5062301;28;20053;-55
2023/01/12 07:27:00;;;;;;;16.03;3.17;;;;;;;18.92;100.00;100185.81;5059846;28;20043;-56
2023/01/12 07:29:25;;;;;;;4.77;3.10;;;;;;;19.74;100.00;100195.09;5062035;28;20025;-58
2023/01/12 07:31:52;;;;;;;7.30;2.75;;;;;;;18.76;100.00;100206.59;5060144;28;20329;-55
2023/01/12 07:34:18;;;;;;;0.47;0.47;;;;;;;19.89;100.00;100205.94;5064378;28;20029;-56
2023/01/12 07:36:43;;;;;;;0.10;0.10;;;;;;;20.99;100.00;100209.13;5059912;28;20046;-55
2023/01/12 07:39:11;;;;;;;0.20;0.20;;;;;;;20.37;100.00;100199.34;5057242;28;20037;-56
2023/01/12 07:44:21;;;;;;;0.20;0.20;;;;;;;20.19;100.00;100255.84;5061326;28;20294;-57
2023/01/12 07:46:47;;;;;;;0.10;0.10;;;;;;;21.52;100.00;100226.72;5066233;28;20262;-55
2023/01/12 07:49:12;;;;;;;0.20;0.20;;;;;;;21.75;100.00;100230.63;5060761;28;20059;-54
2023/01/12 07:51:38;;;;;;;0.10;0.10;;;;;;;23.80;100.00;100241.16;5058992;28;20055;-53
2023/01/12 07:54:04;;;;;;;0.13;0.13;;;;;;;22.27;100.00;100227.41;5065807;28;20277;-56
2023/01/12 07:56:29;;;;;;;0.10;0.10;;;;;;;21.06;100.00;100262.09;5064730;28;20077;-55
2023/01/12 07:58:55;;;;;;;0.23;0.23;;;;;;;20.52;100.00;100249.25;5064695;28;20284;-56
2023/01/12 08:01:20;;;;;;;11.00;3.03;;;;;;;20.60;100.00;100254.13;5063713;28;20040;-51
2023/01/12 08:03:46;;;;;;;8.03;3.23;;;;;;;19.90;100.00;100250.97;5064680;28;20057;-54
2023/01/12 08:06:12;;;;;;;5.60;2.72;;;;;;;20.56;100.00;100253.06;5063107;28;20030;-55
2023/01/12 08:08:37;;;;;;;5.83;2.70;;;;;;;19.19;100.00;100237.09;5059878;28;20037;-56
2023/01/12 08:11:05;;;;;;;5.13;2.40;;;;;;;18.87;100.00;100254.31;5062307;28;20309;-55
2023/01/12 08:13:32;;;;;;;6.17;3.13;;;;;;;19.19;100.00;100249.84;5062966;28;20067;-57
2023/01/12 08:16:05;;;;;;;7.40;2.70;;;;;;;19.20;100.00;100243.34;5061471;28;20294;-53
2023/01/12 08:18:35;;;;;;;4.60;2.70;;;;;;;19.74;100.00;100249.34;5065687;28;20282;-54
2023/01/12 08:21:05;;;;;;;8.97;2.90;;;;;;;20.58;100.00;100265.25;5069986;28;20267;-57
2023/01/12 08:23:36;;;;;;;19.50;3.93;;;;;;;18.92;100.00;100264.38;5060145;28;20278;-53
2023/01/12 08:26:06;;;;;;;12.27;3.23;;;;;;;19.42;100.00;100294.59;5060244;28;20271;-53
2023/01/12 08:28:37;;;;;;;6.83;2.73;;;;;;;19.35;100.00;100251.47;5064460;28;20258;-54
2023/01/12 08:31:05;;;;;;;19.53;3.97;;;;;;;19.82;100.00;100266.97;5059756;28;20270;-56
2023/01/12 08:33:30;;;;;;;8.00;3.33;;;;;;;20.20;100.00;100267.53;5061465;28;20281;-54
2023/01/12 08:35:56;;;;;;;8.95;3.65;;;;;;;19.68;100.00;100272.94;5060053;28;20270;-54
2023/01/12 08:38:21;;;;;;;11.02;3.40;;;;;;;21.37;100.00;100265.72;5065565;28;20038;-53
2023/01/12 08:46:15;;;;;;;5.17;3.13;;;;;;;20.48;100.00;100268.81;5063057;28;20277;-53
2023/01/12 08:48:41;;;;;;;9.67;3.70;;;;;;;20.96;100.00;100286.59;5068047;28;20337;-55
2023/01/12 08:51:07;;;;;;;9.23;3.30;;;;;;;21.13;100.00;100266.41;5065011;28;20040;-50
2023/01/12 08:53:32;;;;;;;9.85;3.00;;;;;;;20.82;100.00;100269.28;5063385;28;20029;-57
2023/01/12 08:55:58;;;;;;;8.10;3.47;;;;;;;21.11;100.00;100265.88;5059672;28;20051;-53
2023/01/12 08:58:23;;;;;;;14.63;3.40;;;;;;;20.49;100.00;100258.78;5061638;28;20068;-55
2023/01/12 09:00:50;;;;;;;10.93;3.33;;;;;;;20.58;100.00;100270.69;5056741;28;20300;-53
2023/01/12 09:03:15;;;;;;;9.73;2.90;;;;;;;20.69;100.00;100276.88;5061889;28;20283;-55
2023/01/12 09:05:43;;;;;;;10.32;2.78;;;;;;;20.20;100.00;100290.06;5061574;28;20637;-53
2023/01/12 09:08:08;;;;;;;4.57;2.37;;;;;;;20.18;100.00;100283.25;5064110;28;20033;-54
2023/01/12 09:10:34;;;;;;;8.47;2.63;;;;;;;20.80;100.00;100285.06;5064164;28;20276;-51
2023/01/12 09:13:00;;;;;;;14.68;3.10;;;;;;;20.05;100.00;100295.47;5064273;28;20033;-53
2023/01/12 09:15:26;;;;;;;5.70;2.05;;;;;;;20.35;100.00;100285.69;5063222;28;20044;-53
2023/01/12 09:17:53;;;;;;;13.15;3.15;;;;;;;19.89;100.00;100289.22;5063084;28;20055;-56
2023/01/12 09:20:19;;;;;;;14.33;3.07;;;;;;;19.78;100.00;100288.41;5060369;28;20067;-52
2023/01/12 09:22:44;;;;;;;14.90;3.23;;;;;;;24.59;100.00;100287.81;5064351;28;20271;-53
2023/01/12 09:25:10;;;;;;;4.07;2.38;;;;;;;21.16;100.00;100291.13;5059014;28;20266;-54
2023/01/12 09:27:37;;;;;;;5.88;2.03;;;;;;;20.80;100.00;100293.19;5062649;28;20040;-53
2023/01/12 09:30:03;;;;;;;7.25;2.35;;;;;;;20.35;100.00;100288.41;5061843;28;20037;-55
2023/01/12 09:32:29;;;;;;;0.10;0.10;;;;;;;20.14;100.00;100293.03;5058565;28;20059;-51
2023/01/12 09:34:55;;;;;;;0.13;0.13;;;;;;;20.26;100.00;100314.47;5062101;28;20286;-55
2023/01/12 09:37:20;;;;;;;0.10;0.10;;;;;;;20.47;100.00;100297.06;5060538;28;20045;-51
2023/01/12 09:39:46;;;;;;;0.10;0.10;;;;;;;20.90;100.00;100310.28;5060058;28;20033;-55
2023/01/12 09:48:12;;;;;;;0.67;0.67;;;;;;;19.62;100.00;100314.72;5059325;28;20274;-53
2023/01/12 09:50:45;;;;;;;0.20;0.20;;;;;;;20.32;100.00;100335.13;5063833;28;20270;-51
2023/01/12 09:53:22;;;;;;;0.10;0.10;;;;;;;20.66;100.00;100330.97;5058306;28;20270;-57
2023/01/12 09:56:01;;;;;;;0.00;0.00;;;;;;;20.89;100.00;100335.84;5060506;28;20282;-53
2023/01/12 09:58:32;;;;;;;4.47;1.47;;;;;;;20.72;100.00;100336.09;5061775;28;20041;-53
2023/01/12 10:01:00;;;;;;;3.40;1.73;;;;;;;20.68;100.00;100335.03;5062032;28;20281;-54
2023/01/12 10:03:30;;;;;;;5.03;1.90;;;;;;;21.06;100.00;100386.31;5055375;28;20305;-56
2023/01/12 10:05:59;;;;;;;6.30;2.20;;;;;;;21.91;100.00;100360.06;5058358;28;20270;-53
2023/01/12 10:08:37;;;;;;;2.67;1.80;;;;;;;22.27;100.00;100355.41;5059801;28;20305;-53
2023/01/12 10:11:13;;;;;;;18.70;2.60;;;;;;;21.16;100.00;100352.84;5058599;28;20364;-53
2023/01/12 10:14:12;;;;;;;5.03;2.20;;;;;;;22.09;100.00;100346.03;5058764;28;20343;-56
2023/01/12 10:17:00;;;;;;;4.40;1.87;;;;;;;21.72;100.00;100372.72;5056349;28;20281;-57
2023/01/12 10:19:30;;;;;;;2.93;1.70;;;;;;;21.99;100.00;100363.25;5059963;28;20321;-58
2023/01/12 10:21:56;;;;;;;3.07;1.40;;;;;;;21.34;100.00;100370.44;5058613;28;20289;-55
2023/01/12 10:24:24;;;;;;;3.78;1.75;;;;;;;21.45;100.00;100352.97;5061954;28;20286;-59
2023/01/12 10:27:00;;;;;;;15.90;2.70;;;;;;;22.42;100.00;100360.72;5062637;28;20037;-58
2023/01/12 10:29:26;;;;;;;5.03;2.00;;;;;;;22.06;100.00;100366.47;5060742;28;20265;-57
2023/01/12 10:31:52;;;;;;;4.13;1.90;;;;;;;22.52;100.00;100359.00;5058826;28;20049;-56
2023/01/12 10:34:17;;;;;;;2.63;1.67;;;;;;;22.56;100.00;100358.16;5062675;28;20034;-56
2023/01/12 10:36:46;;;;;;;9.20;2.10;;;;;;;23.92;100.00;100358.88;5062189;28;20168;-56
2023/01/12 10:39:26;;;;;;;3.97;2.20;;;;;;;22.63;100.00;100353.16;5061863;28;20060;-56
2023/01/12 10:43:17;;;;;;;31.77;2.70;;;;;;;21.97;100.00;100406.28;5061768;28;20277;-58
2023/01/12 10:45:20;;;;;;;7.38;1.67;;;;;;;20.88;100.00;100357.84;5065275;28;20346;-58
2023/01/12 10:47:49;;;;;;;3.20;1.30;;;;;;;21.25;100.00;100370.22;5055648;28;20033;-60
2023/01/12 10:50:24;;;;;;;7.27;1.80;;;;;;;21.61;100.00;100358.31;5059387;28;20262;-58
2023/01/12 10:53:03;;;;;;;3.93;2.50;;;;;;;21.49;100.00;100369.56;5060347;28;20259;-56
2023/01/12 10:55:32;;;;;;;2.73;1.67;;;;;;;21.19;100.00;100360.44;5056611;28;20266;-58
2023/01/12 10:57:58;;;;;;;3.37;1.50;;;;;;;21.87;100.00;100358.97;5057699;28;20290;-58
2023/01/12 11:00:25;;;;;;;;;;;;;;;21.92;100.00;100378.03;5063555;28;20273;-59
2023/01/12 11:02:51;;;;;;;4.83;2.00;;;;;;;21.77;100.00;100353.63;5059367;28;19981;-58
2023/01/12 11:05:28;;;;;;;3.43;1.90;;;;;;;21.08;100.00;100358.84;5060416;28;20330;-56
2023/01/12 11:07:54;;;;;;;1.98;1.60;;;;;;;22.04;100.00;100363.22;5059854;28;20314;-58
2023/01/12 11:10:35;;;;;;;6.63;1.83;;;;;;;20.91;100.00;100343.69;5062231;28;20025;-58
2023/01/12 11:13:03;;;;;;;5.20;2.10;;;;;;;21.89;100.00;100345.91;5061861;28;20033;-58
2023/01/12 11:15:34;;;;;;;5.00;2.10;;;;;;;21.59;100.00;100374.91;5063306;28;20266;-59
2023/01/12 11:18:24;;;;;;;5.57;2.67;;;;;;;22.12;100.00;100367.25;5062089;28;20290;-56
2023/01/12 11:20:55;;;;;;;3.97;2.00;;;;;;;21.22;100.00;100364.50;5059393;28;20271;-59
2023/01/12 11:23:31;;;;;;;3.23;2.00;;;;;;;21.51;100.00;100351.03;5062843;28;20282;-59
2023/01/12 11:26:01;;;;;;;4.00;2.20;;;;;;;22.26;100.00;100348.34;5059070;28;20267;-57
2023/01/12 11:28:58;;;;;;;4.00;2.40;;;;;;;21.44;100.00;100353.22;5060910;28;20105;-58
2023/01/12 11:31:52;;;;;;;4.20;2.00;;;;;;;22.57;100.00;100350.78;5058878;28;20310;-56
2023/01/12 11:34:23;;;;;;;3.17;2.00;;;;;;;21.89;100.00;100364.94;5055076;28;20294;-57
2023/01/12 11:37:01;;;;;;;4.90;2.47;;;;;;;21.52;100.00;100355.38;5057768;28;20266;-58
2023/01/12 11:39:29;;;;;;;5.13;2.10;;;;;;;21.25;100.00;100372.09;5058254;28;20278;-58
2023/01/12 11:44:56;;;;;;;8.40;2.27;;;;;;;20.93;100.00;100341.50;5060425;28;20302;-58
2023/01/12 11:47:27;;;;;;;6.03;2.60;;;;;;;21.41;100.00;100329.31;5059367;28;20333;-57
2023/01/12 11:50:01;;;;;;;4.63;2.27;;;;;;;21.83;100.00;100328.00;5059100;28;20312;-60
2023/01/12 11:52:27;;;;;;;6.37;2.40;;;;;;;21.71;100.00;100335.72;5059236;28;20270;-58
2023/01/12 11:54:54;;;;;;;3.77;1.83;;;;;;;20.54;100.00;100340.22;5059694;28;20285;-59
2023/01/12 11:57:40;;;;;;;5.20;1.73;;;;;;;20.52;100.00;100336.97;5058619;28;20293;-58